sensor_id;sensor_type;location;lat;lon;timestamp;P1;durP1;ratioP1;P2;durP2;ratioP2
78612;SDS011;67933;51.060;3.638;2023-11-21T00:02:12;33.60;;;17.25;;
78612;SDS011;67933;51.060;3.638;2023-11-21T00:04:37;39.35;;;18.92;;
78612;SDS011;67933;51.060;3.638;2023-11-21T00:07:03;30.48;;;16.52;;
78612;SDS011;67933;51.060;3.638;2023-11-21T00:09:28;32.65;;;17.08;;
78612;SDS011;67933;51.060;3.638;2023-11-21T00:11:54;35.05;;;18.80;;
78612;SDS011;67933;51.060;3.638;2023-11-21T00:14:19;44.78;;;22.17;;
78612;SDS011;67933;51.060;3.638;2023-11-21T00:16:44;37.53;;;19.25;;
78612;SDS011;67933;51.060;3.638;2023-11-21T00:19:10;41.08;;;19.90;;
78612;SDS011;67933;51.060;3.638;2023-11-21T00:21:36;36.28;;;19.15;;
78612;SDS011;67933;51.060;3.638;2023-11-21T00:24:02;36.83;;;19.45;;
78612;SDS011;67933;51.060;3.638;2023-11-21T00:26:28;37.25;;;19.85;;
78612;SDS011;67933;51.060;3.638;2023-11-21T00:28:53;40.30;;;20.45;;
78612;SDS011;67933;51.060;3.638;2023-11-21T00:31:19;31.00;;;17.30;;
78612;SDS011;67933;51.060;3.638;2023-11-21T00:33:44;31.83;;;19.30;;
78612;SDS011;67933;51.060;3.638;2023-11-21T00:36:09;35.17;;;17.63;;
78612;SDS011;67933;51.060;3.638;2023-11-21T00:38:35;33.08;;;17.55;;
78612;SDS011;67933;51.060;3.638;2023-11-21T00:41:01;33.55;;;17.98;;
78612;SDS011;67933;51.060;3.638;2023-11-21T00:43:27;32.78;;;17.67;;
78612;SDS011;67933;51.060;3.638;2023-11-21T00:45:53;32.65;;;16.27;;
78612;SDS011;67933;51.060;3.638;2023-11-21T00:48:19;28.90;;;14.50;;
78612;SDS011;67933;51.060;3.638;2023-11-21T00:50:44;30.00;;;15.90;;
78612;SDS011;67933;51.060;3.638;2023-11-21T00:53:09;29.83;;;15.75;;
78612;SDS011;67933;51.060;3.638;2023-11-21T00:55:36;28.52;;;15.10;;
78612;SDS011;67933;51.060;3.638;2023-11-21T00:58:02;25.95;;;14.02;;
78612;SDS011;67933;51.060;3.638;2023-11-21T01:00:29;25.55;;;14.70;;
78612;SDS011;67933;51.060;3.638;2023-11-21T01:02:54;24.05;;;15.45;;
78612;SDS011;67933;51.060;3.638;2023-11-21T01:05:20;28.50;;;15.00;;
78612;SDS011;67933;51.060;3.638;2023-11-21T01:07:45;23.02;;;13.93;;
78612;SDS011;67933;51.060;3.638;2023-11-21T01:10:12;25.40;;;14.18;;
78612;SDS011;67933;51.060;3.638;2023-11-21T01:12:37;24.92;;;13.45;;
78612;SDS011;67933;51.060;3.638;2023-11-21T01:15:04;24.35;;;13.38;;
78612;SDS011;67933;51.060;3.638;2023-11-21T01:17:32;24.73;;;14.18;;
78612;SDS011;67933;51.060;3.638;2023-11-21T01:19:59;22.48;;;12.60;;
78612;SDS011;67933;51.060;3.638;2023-11-21T01:22:25;26.30;;;14.10;;
78612;SDS011;67933;51.060;3.638;2023-11-21T01:24:54;23.65;;;13.07;;
78612;SDS011;67933;51.060;3.638;2023-11-21T01:27:20;25.52;;;13.30;;
78612;SDS011;67933;51.060;3.638;2023-11-21T01:29:45;25.40;;;12.77;;
78612;SDS011;67933;51.060;3.638;2023-11-21T01:32:11;24.67;;;13.32;;
78612;SDS011;67933;51.060;3.638;2023-11-21T01:34:36;22.42;;;12.63;;
78612;SDS011;67933;51.060;3.638;2023-11-21T01:37:02;19.95;;;12.25;;
78612;SDS011;67933;51.060;3.638;2023-11-21T01:39:29;21.33;;;12.20;;
78612;SDS011;67933;51.060;3.638;2023-11-21T01:41:55;24.92;;;12.95;;
78612;SDS011;67933;51.060;3.638;2023-11-21T01:44:23;22.00;;;11.80;;
78612;SDS011;67933;51.060;3.638;2023-11-21T01:46:49;22.27;;;12.50;;
78612;SDS011;67933;51.060;3.638;2023-11-21T01:49:15;21.27;;;11.32;;
78612;SDS011;67933;51.060;3.638;2023-11-21T01:51:43;20.75;;;11.30;;
78612;SDS011;67933;51.060;3.638;2023-11-21T01:54:12;27.92;;;11.30;;
78612;SDS011;67933;51.060;3.638;2023-11-21T01:56:38;20.20;;;11.20;;
78612;SDS011;67933;51.060;3.638;2023-11-21T01:59:04;23.48;;;12.18;;
78612;SDS011;67933;51.060;3.638;2023-11-21T02:01:30;20.30;;;11.05;;
78612;SDS011;67933;51.060;3.638;2023-11-21T02:03:56;17.75;;;10.20;;
78612;SDS011;67933;51.060;3.638;2023-11-21T02:06:22;22.33;;;10.32;;
78612;SDS011;67933;51.060;3.638;2023-11-21T02:08:47;21.15;;;11.63;;
78612;SDS011;67933;51.060;3.638;2023-11-21T02:11:14;20.70;;;10.82;;
78612;SDS011;67933;51.060;3.638;2023-11-21T02:13:39;20.27;;;11.05;;
78612;SDS011;67933;51.060;3.638;2023-11-21T02:16:09;20.58;;;11.38;;
78612;SDS011;67933;51.060;3.638;2023-11-21T02:18:37;20.15;;;11.23;;
78612;SDS011;67933;51.060;3.638;2023-11-21T02:21:04;23.95;;;12.15;;
78612;SDS011;67933;51.060;3.638;2023-11-21T02:23:29;21.52;;;10.30;;
78612;SDS011;67933;51.060;3.638;2023-11-21T02:25:55;22.27;;;11.50;;
78612;SDS011;67933;51.060;3.638;2023-11-21T02:28:21;23.70;;;11.02;;
78612;SDS011;67933;51.060;3.638;2023-11-21T02:30:53;18.10;;;10.52;;
78612;SDS011;67933;51.060;3.638;2023-11-21T02:33:21;18.83;;;10.60;;
78612;SDS011;67933;51.060;3.638;2023-11-21T02:35:46;20.05;;;11.30;;
78612;SDS011;67933;51.060;3.638;2023-11-21T02:38:12;26.23;;;14.25;;
78612;SDS011;67933;51.060;3.638;2023-11-21T02:40:37;20.23;;;11.65;;
78612;SDS011;67933;51.060;3.638;2023-11-21T02:43:02;20.27;;;12.02;;
78612;SDS011;67933;51.060;3.638;2023-11-21T02:45:30;18.88;;;11.35;;
78612;SDS011;67933;51.060;3.638;2023-11-21T02:47:56;18.73;;;10.40;;
78612;SDS011;67933;51.060;3.638;2023-11-21T02:50:24;22.40;;;12.07;;
78612;SDS011;67933;51.060;3.638;2023-11-21T02:52:50;22.15;;;11.65;;
78612;SDS011;67933;51.060;3.638;2023-11-21T02:55:16;25.02;;;12.00;;
78612;SDS011;67933;51.060;3.638;2023-11-21T02:57:41;20.67;;;11.43;;
78612;SDS011;67933;51.060;3.638;2023-11-21T03:00:07;20.52;;;11.38;;
78612;SDS011;67933;51.060;3.638;2023-11-21T03:02:33;22.48;;;11.50;;
78612;SDS011;67933;51.060;3.638;2023-11-21T03:05:01;22.38;;;12.38;;
78612;SDS011;67933;51.060;3.638;2023-11-21T03:07:27;19.80;;;11.43;;
78612;SDS011;67933;51.060;3.638;2023-11-21T03:09:52;20.08;;;11.25;;
78612;SDS011;67933;51.060;3.638;2023-11-21T03:12:18;21.33;;;12.05;;
78612;SDS011;67933;51.060;3.638;2023-11-21T03:14:44;22.98;;;12.50;;
78612;SDS011;67933;51.060;3.638;2023-11-21T03:17:10;21.60;;;11.85;;
78612;SDS011;67933;51.060;3.638;2023-11-21T03:19:36;24.15;;;11.90;;
78612;SDS011;67933;51.060;3.638;2023-11-21T03:22:02;24.38;;;12.15;;
78612;SDS011;67933;51.060;3.638;2023-11-21T03:24:29;21.38;;;12.90;;
78612;SDS011;67933;51.060;3.638;2023-11-21T03:26:54;24.67;;;12.43;;
78612;SDS011;67933;51.060;3.638;2023-11-21T03:29:20;21.00;;;12.10;;
78612;SDS011;67933;51.060;3.638;2023-11-21T03:31:45;25.42;;;12.50;;
78612;SDS011;67933;51.060;3.638;2023-11-21T03:34:15;27.17;;;11.35;;
78612;SDS011;67933;51.060;3.638;2023-11-21T03:36:41;21.80;;;12.50;;
78612;SDS011;67933;51.060;3.638;2023-11-21T03:39:06;22.00;;;11.95;;
78612;SDS011;67933;51.060;3.638;2023-11-21T03:41:32;22.45;;;11.95;;
78612;SDS011;67933;51.060;3.638;2023-11-21T03:43:58;25.88;;;13.07;;
78612;SDS011;67933;51.060;3.638;2023-11-21T03:46:24;25.95;;;12.32;;
78612;SDS011;67933;51.060;3.638;2023-11-21T03:48:50;22.75;;;11.68;;
78612;SDS011;67933;51.060;3.638;2023-11-21T03:51:15;26.05;;;12.48;;
78612;SDS011;67933;51.060;3.638;2023-11-21T03:53:40;28.27;;;12.48;;
78612;SDS011;67933;51.060;3.638;2023-11-21T03:56:06;23.10;;;12.80;;
78612;SDS011;67933;51.060;3.638;2023-11-21T03:58:32;27.10;;;13.82;;
78612;SDS011;67933;51.060;3.638;2023-11-21T04:00:57;23.60;;;12.15;;
78612;SDS011;67933;51.060;3.638;2023-11-21T04:03:23;28.30;;;13.82;;
78612;SDS011;67933;51.060;3.638;2023-11-21T04:05:48;25.75;;;13.35;;
78612;SDS011;67933;51.060;3.638;2023-11-21T04:08:13;27.58;;;13.20;;
78612;SDS011;67933;51.060;3.638;2023-11-21T04:10:39;30.92;;;13.55;;
78612;SDS011;67933;51.060;3.638;2023-11-21T04:13:05;33.90;;;14.13;;
78612;SDS011;67933;51.060;3.638;2023-11-21T04:15:31;31.88;;;13.98;;
78612;SDS011;67933;51.060;3.638;2023-11-21T04:17:57;28.85;;;13.55;;
78612;SDS011;67933;51.060;3.638;2023-11-21T04:20:22;22.40;;;12.13;;
78612;SDS011;67933;51.060;3.638;2023-11-21T04:22:48;30.58;;;13.50;;
78612;SDS011;67933;51.060;3.638;2023-11-21T04:25:14;30.23;;;13.50;;
78612;SDS011;67933;51.060;3.638;2023-11-21T04:27:40;27.95;;;13.40;;
78612;SDS011;67933;51.060;3.638;2023-11-21T04:30:08;30.27;;;13.57;;
78612;SDS011;67933;51.060;3.638;2023-11-21T04:32:35;30.08;;;14.18;;
78612;SDS011;67933;51.060;3.638;2023-11-21T04:35:00;30.83;;;12.95;;
78612;SDS011;67933;51.060;3.638;2023-11-21T04:37:26;30.00;;;13.77;;
78612;SDS011;67933;51.060;3.638;2023-11-21T04:39:51;25.08;;;12.50;;
78612;SDS011;67933;51.060;3.638;2023-11-21T04:42:17;28.17;;;13.25;;
78612;SDS011;67933;51.060;3.638;2023-11-21T04:44:42;25.33;;;12.15;;
78612;SDS011;67933;51.060;3.638;2023-11-21T04:47:09;25.63;;;11.95;;
78612;SDS011;67933;51.060;3.638;2023-11-21T04:49:34;26.88;;;12.75;;
78612;SDS011;67933;51.060;3.638;2023-11-21T04:52:00;25.60;;;12.50;;
78612;SDS011;67933;51.060;3.638;2023-11-21T04:54:26;29.88;;;13.75;;
78612;SDS011;67933;51.060;3.638;2023-11-21T04:56:52;31.70;;;13.48;;
78612;SDS011;67933;51.060;3.638;2023-11-21T04:59:17;23.80;;;12.30;;
78612;SDS011;67933;51.060;3.638;2023-11-21T05:01:42;26.88;;;13.35;;
78612;SDS011;67933;51.060;3.638;2023-11-21T05:04:08;29.27;;;13.48;;
78612;SDS011;67933;51.060;3.638;2023-11-21T05:06:33;26.23;;;14.05;;
78612;SDS011;67933;51.060;3.638;2023-11-21T05:08:59;29.83;;;14.48;;
78612;SDS011;67933;51.060;3.638;2023-11-21T05:11:26;35.88;;;14.98;;
78612;SDS011;67933;51.060;3.638;2023-11-21T05:13:52;38.10;;;14.65;;
78612;SDS011;67933;51.060;3.638;2023-11-21T05:16:21;33.25;;;14.02;;
78612;SDS011;67933;51.060;3.638;2023-11-21T05:18:47;30.05;;;13.52;;
78612;SDS011;67933;51.060;3.638;2023-11-21T05:21:12;33.08;;;14.35;;
78612;SDS011;67933;51.060;3.638;2023-11-21T05:23:38;38.47;;;15.10;;
78612;SDS011;67933;51.060;3.638;2023-11-21T05:26:03;26.48;;;13.18;;
78612;SDS011;67933;51.060;3.638;2023-11-21T05:28:29;34.45;;;15.15;;
78612;SDS011;67933;51.060;3.638;2023-11-21T05:30:54;31.15;;;13.52;;
78612;SDS011;67933;51.060;3.638;2023-11-21T05:33:20;27.73;;;12.95;;
78612;SDS011;67933;51.060;3.638;2023-11-21T05:35:45;24.60;;;11.98;;
78612;SDS011;67933;51.060;3.638;2023-11-21T05:38:11;32.60;;;14.00;;
78612;SDS011;67933;51.060;3.638;2023-11-21T05:40:37;25.05;;;12.40;;
78612;SDS011;67933;51.060;3.638;2023-11-21T05:43:02;34.22;;;15.82;;
78612;SDS011;67933;51.060;3.638;2023-11-21T05:45:28;27.60;;;12.90;;
78612;SDS011;67933;51.060;3.638;2023-11-21T05:47:54;28.63;;;12.68;;
78612;SDS011;67933;51.060;3.638;2023-11-21T05:50:20;30.13;;;14.15;;
78612;SDS011;67933;51.060;3.638;2023-11-21T05:52:46;28.75;;;12.52;;
78612;SDS011;67933;51.060;3.638;2023-11-21T05:55:12;29.30;;;13.40;;
78612;SDS011;67933;51.060;3.638;2023-11-21T05:57:38;26.85;;;13.38;;
78612;SDS011;67933;51.060;3.638;2023-11-21T06:00:05;30.23;;;14.10;;
78612;SDS011;67933;51.060;3.638;2023-11-21T06:02:50;26.52;;;13.43;;
78612;SDS011;67933;51.060;3.638;2023-11-21T06:07:44;26.92;;;12.43;;
78612;SDS011;67933;51.060;3.638;2023-11-21T06:10:10;34.75;;;13.90;;
78612;SDS011;67933;51.060;3.638;2023-11-21T06:12:37;29.48;;;13.45;;
78612;SDS011;67933;51.060;3.638;2023-11-21T06:15:03;34.17;;;13.50;;
78612;SDS011;67933;51.060;3.638;2023-11-21T06:17:30;35.85;;;15.32;;
78612;SDS011;67933;51.060;3.638;2023-11-21T06:19:56;30.48;;;14.05;;
78612;SDS011;67933;51.060;3.638;2023-11-21T06:22:22;34.53;;;15.15;;
78612;SDS011;67933;51.060;3.638;2023-11-21T06:24:47;39.63;;;15.50;;
78612;SDS011;67933;51.060;3.638;2023-11-21T06:27:13;46.53;;;17.40;;
78612;SDS011;67933;51.060;3.638;2023-11-21T06:29:38;43.85;;;17.23;;
78612;SDS011;67933;51.060;3.638;2023-11-21T06:32:04;40.60;;;15.68;;
78612;SDS011;67933;51.060;3.638;2023-11-21T06:34:30;51.50;;;18.50;;
78612;SDS011;67933;51.060;3.638;2023-11-21T06:36:56;37.20;;;15.88;;
78612;SDS011;67933;51.060;3.638;2023-11-21T06:39:21;37.22;;;15.77;;
78612;SDS011;67933;51.060;3.638;2023-11-21T06:41:48;42.30;;;16.42;;
78612;SDS011;67933;51.060;3.638;2023-11-21T06:44:14;41.17;;;17.48;;
78612;SDS011;67933;51.060;3.638;2023-11-21T06:46:40;50.10;;;17.77;;
78612;SDS011;67933;51.060;3.638;2023-11-21T06:49:07;38.45;;;16.90;;
78612;SDS011;67933;51.060;3.638;2023-11-21T06:51:33;43.50;;;16.83;;
78612;SDS011;67933;51.060;3.638;2023-11-21T06:53:58;41.55;;;17.25;;
78612;SDS011;67933;51.060;3.638;2023-11-21T06:56:24;41.50;;;16.27;;
78612;SDS011;67933;51.060;3.638;2023-11-21T06:58:49;41.67;;;16.30;;
78612;SDS011;67933;51.060;3.638;2023-11-21T07:01:19;44.75;;;18.05;;
78612;SDS011;67933;51.060;3.638;2023-11-21T07:03:45;41.38;;;16.30;;
78612;SDS011;67933;51.060;3.638;2023-11-21T07:06:10;43.78;;;16.88;;
78612;SDS011;67933;51.060;3.638;2023-11-21T07:08:36;42.90;;;18.08;;
78612;SDS011;67933;51.060;3.638;2023-11-21T07:11:02;47.35;;;17.73;;
78612;SDS011;67933;51.060;3.638;2023-11-21T07:13:30;42.38;;;16.42;;
78612;SDS011;67933;51.060;3.638;2023-11-21T07:15:57;71.47;;;18.77;;
78612;SDS011;67933;51.060;3.638;2023-11-21T07:18:23;39.10;;;16.63;;
78612;SDS011;67933;51.060;3.638;2023-11-21T07:20:49;43.20;;;16.25;;
78612;SDS011;67933;51.060;3.638;2023-11-21T07:23:14;35.05;;;13.30;;
78612;SDS011;67933;51.060;3.638;2023-11-21T07:25:40;41.33;;;15.32;;
78612;SDS011;67933;51.060;3.638;2023-11-21T07:28:08;46.90;;;16.15;;
78612;SDS011;67933;51.060;3.638;2023-11-21T07:30:33;37.63;;;14.32;;
78612;SDS011;67933;51.060;3.638;2023-11-21T07:32:59;35.05;;;13.45;;
78612;SDS011;67933;51.060;3.638;2023-11-21T07:35:24;35.67;;;12.93;;
78612;SDS011;67933;51.060;3.638;2023-11-21T07:37:50;32.20;;;12.35;;
78612;SDS011;67933;51.060;3.638;2023-11-21T07:40:15;45.95;;;13.60;;
78612;SDS011;67933;51.060;3.638;2023-11-21T07:42:41;32.53;;;12.82;;
78612;SDS011;67933;51.060;3.638;2023-11-21T07:45:08;45.15;;;13.43;;
78612;SDS011;67933;51.060;3.638;2023-11-21T07:47:33;35.97;;;12.73;;
78612;SDS011;67933;51.060;3.638;2023-11-21T07:49:59;29.67;;;12.27;;
78612;SDS011;67933;51.060;3.638;2023-11-21T07:52:25;31.35;;;12.45;;
78612;SDS011;67933;51.060;3.638;2023-11-21T07:54:50;35.63;;;13.32;;
78612;SDS011;67933;51.060;3.638;2023-11-21T07:57:16;37.95;;;13.30;;
78612;SDS011;67933;51.060;3.638;2023-11-21T07:59:42;38.40;;;12.15;;
78612;SDS011;67933;51.060;3.638;2023-11-21T08:02:07;42.13;;;13.73;;
78612;SDS011;67933;51.060;3.638;2023-11-21T08:04:33;40.80;;;13.20;;
78612;SDS011;67933;51.060;3.638;2023-11-21T08:07:00;35.40;;;13.68;;
78612;SDS011;67933;51.060;3.638;2023-11-21T08:09:26;47.00;;;14.68;;
78612;SDS011;67933;51.060;3.638;2023-11-21T08:11:52;39.72;;;15.00;;
78612;SDS011;67933;51.060;3.638;2023-11-21T08:14:18;32.33;;;12.32;;
78612;SDS011;67933;51.060;3.638;2023-11-21T08:16:43;42.00;;;13.77;;
78612;SDS011;67933;51.060;3.638;2023-11-21T08:19:09;33.78;;;12.65;;
78612;SDS011;67933;51.060;3.638;2023-11-21T08:21:36;31.50;;;11.45;;
78612;SDS011;67933;51.060;3.638;2023-11-21T08:24:02;33.03;;;12.13;;
78612;SDS011;67933;51.060;3.638;2023-11-21T08:26:29;34.13;;;13.50;;
78612;SDS011;67933;51.060;3.638;2023-11-21T08:28:54;31.23;;;10.85;;
78612;SDS011;67933;51.060;3.638;2023-11-21T08:31:27;31.17;;;10.80;;
78612;SDS011;67933;51.060;3.638;2023-11-21T08:33:53;37.25;;;11.85;;
78612;SDS011;67933;51.060;3.638;2023-11-21T08:36:21;78.53;;;20.02;;
78612;SDS011;67933;51.060;3.638;2023-11-21T08:38:51;72.47;;;16.40;;
78612;SDS011;67933;51.060;3.638;2023-11-21T08:41:20;33.33;;;12.30;;
78612;SDS011;67933;51.060;3.638;2023-11-21T08:43:47;25.42;;;11.25;;
78612;SDS011;67933;51.060;3.638;2023-11-21T08:46:14;18.33;;;8.70;;
78612;SDS011;67933;51.060;3.638;2023-11-21T08:48:40;12.30;;;6.65;;
78612;SDS011;67933;51.060;3.638;2023-11-21T08:51:06;12.95;;;6.90;;
78612;SDS011;67933;51.060;3.638;2023-11-21T08:53:32;9.88;;;6.05;;
78612;SDS011;67933;51.060;3.638;2023-11-21T08:55:58;10.15;;;5.60;;
78612;SDS011;67933;51.060;3.638;2023-11-21T08:58:23;7.88;;;4.50;;
78612;SDS011;67933;51.060;3.638;2023-11-21T09:00:49;6.97;;;4.95;;
78612;SDS011;67933;51.060;3.638;2023-11-21T09:03:14;6.55;;;4.47;;
78612;SDS011;67933;51.060;3.638;2023-11-21T09:05:39;6.82;;;3.80;;
78612;SDS011;67933;51.060;3.638;2023-11-21T09:08:05;5.97;;;3.40;;
78612;SDS011;67933;51.060;3.638;2023-11-21T09:10:32;5.25;;;3.30;;
78612;SDS011;67933;51.060;3.638;2023-11-21T09:13:00;4.30;;;2.97;;
78612;SDS011;67933;51.060;3.638;2023-11-21T09:15:26;3.65;;;2.92;;
78612;SDS011;67933;51.060;3.638;2023-11-21T09:17:52;4.80;;;2.83;;
78612;SDS011;67933;51.060;3.638;2023-11-21T09:20:18;6.28;;;2.80;;
78612;SDS011;67933;51.060;3.638;2023-11-21T09:22:47;5.43;;;2.75;;
78612;SDS011;67933;51.060;3.638;2023-11-21T09:25:13;4.03;;;2.20;;
78612;SDS011;67933;51.060;3.638;2023-11-21T09:27:39;3.95;;;2.53;;
78612;SDS011;67933;51.060;3.638;2023-11-21T09:30:05;4.32;;;2.60;;
78612;SDS011;67933;51.060;3.638;2023-11-21T09:32:34;6.13;;;3.00;;
78612;SDS011;67933;51.060;3.638;2023-11-21T09:35:02;5.97;;;3.10;;
78612;SDS011;67933;51.060;3.638;2023-11-21T09:37:27;3.30;;;2.55;;
78612;SDS011;67933;51.060;3.638;2023-11-21T09:39:53;4.03;;;3.00;;
78612;SDS011;67933;51.060;3.638;2023-11-21T09:42:25;6.88;;;2.78;;
78612;SDS011;67933;51.060;3.638;2023-11-21T09:45:05;3.83;;;2.45;;
78612;SDS011;67933;51.060;3.638;2023-11-21T09:47:40;3.90;;;2.40;;
78612;SDS011;67933;51.060;3.638;2023-11-21T09:50:07;5.50;;;3.03;;
78612;SDS011;67933;51.060;3.638;2023-11-21T09:55:20;4.38;;;2.55;;
78612;SDS011;67933;51.060;3.638;2023-11-21T09:57:47;3.60;;;2.30;;
78612;SDS011;67933;51.060;3.638;2023-11-21T10:00:15;4.28;;;2.50;;
78612;SDS011;67933;51.060;3.638;2023-11-21T10:02:43;5.70;;;2.88;;
78612;SDS011;67933;51.060;3.638;2023-11-21T10:05:08;4.57;;;3.28;;
78612;SDS011;67933;51.060;3.638;2023-11-21T10:07:36;5.50;;;2.60;;
78612;SDS011;67933;51.060;3.638;2023-11-21T10:10:04;7.72;;;3.63;;
78612;SDS011;67933;51.060;3.638;2023-11-21T10:12:30;5.43;;;3.20;;
78612;SDS011;67933;51.060;3.638;2023-11-21T10:14:57;6.07;;;3.20;;
78612;SDS011;67933;51.060;3.638;2023-11-21T10:17:25;7.95;;;2.95;;
78612;SDS011;67933;51.060;3.638;2023-11-21T10:19:55;8.32;;;3.08;;
78612;SDS011;67933;51.060;3.638;2023-11-21T10:22:22;6.97;;;2.95;;
78612;SDS011;67933;51.060;3.638;2023-11-21T10:24:49;7.50;;;2.75;;
78612;SDS011;67933;51.060;3.638;2023-11-21T10:27:14;7.57;;;3.40;;
78612;SDS011;67933;51.060;3.638;2023-11-21T10:29:39;7.82;;;3.42;;
78612;SDS011;67933;51.060;3.638;2023-11-21T10:32:05;7.00;;;3.58;;
78612;SDS011;67933;51.060;3.638;2023-11-21T10:34:31;8.80;;;3.58;;
78612;SDS011;67933;51.060;3.638;2023-11-21T10:36:57;8.27;;;3.55;;
78612;SDS011;67933;51.060;3.638;2023-11-21T10:41:52;6.32;;;2.45;;
78612;SDS011;67933;51.060;3.638;2023-11-21T10:44:19;8.05;;;2.40;;
78612;SDS011;67933;51.060;3.638;2023-11-21T10:46:49;4.47;;;2.30;;
78612;SDS011;67933;51.060;3.638;2023-11-21T10:49:18;2.92;;;1.63;;
78612;SDS011;67933;51.060;3.638;2023-11-21T10:51:45;4.40;;;2.17;;
78612;SDS011;67933;51.060;3.638;2023-11-21T10:54:16;5.50;;;1.92;;
78612;SDS011;67933;51.060;3.638;2023-11-21T10:56:42;4.78;;;2.00;;
78612;SDS011;67933;51.060;3.638;2023-11-21T10:59:12;8.80;;;2.00;;
78612;SDS011;67933;51.060;3.638;2023-11-21T11:01:41;5.70;;;1.77;;
78612;SDS011;67933;51.060;3.638;2023-11-21T11:04:09;7.82;;;2.13;;
78612;SDS011;67933;51.060;3.638;2023-11-21T11:06:41;3.83;;;2.10;;
78612;SDS011;67933;51.060;3.638;2023-11-21T11:09:09;6.20;;;2.00;;
78612;SDS011;67933;51.060;3.638;2023-11-21T11:11:39;5.90;;;2.08;;
78612;SDS011;67933;51.060;3.638;2023-11-21T11:14:12;8.10;;;2.10;;
78612;SDS011;67933;51.060;3.638;2023-11-21T11:16:39;5.80;;;2.40;;
78612;SDS011;67933;51.060;3.638;2023-11-21T11:19:08;8.65;;;1.90;;
78612;SDS011;67933;51.060;3.638;2023-11-21T11:21:42;6.40;;;1.90;;
78612;SDS011;67933;51.060;3.638;2023-11-21T11:24:58;8.20;;;2.25;;
78612;SDS011;67933;51.060;3.638;2023-11-21T11:32:46;7.05;;;1.83;;
78612;SDS011;67933;51.060;3.638;2023-11-21T11:38:32;5.55;;;1.67;;
78612;SDS011;67933;51.060;3.638;2023-11-21T11:41:01;13.57;;;2.20;;
78612;SDS011;67933;51.060;3.638;2023-11-21T11:43:28;8.63;;;1.70;;
78612;SDS011;67933;51.060;3.638;2023-11-21T11:45:56;4.15;;;1.88;;
78612;SDS011;67933;51.060;3.638;2023-11-21T11:48:24;6.00;;;1.83;;
78612;SDS011;67933;51.060;3.638;2023-11-21T11:53:51;6.50;;;1.65;;
78612;SDS011;67933;51.060;3.638;2023-11-21T11:56:21;4.18;;;1.40;;
78612;SDS011;67933;51.060;3.638;2023-11-21T11:58:47;2.90;;;1.40;;
78612;SDS011;67933;51.060;3.638;2023-11-21T12:01:15;4.40;;;1.50;;
78612;SDS011;67933;51.060;3.638;2023-11-21T12:03:43;4.93;;;1.17;;
78612;SDS011;67933;51.060;3.638;2023-11-21T12:06:09;4.30;;;1.50;;
78612;SDS011;67933;51.060;3.638;2023-11-21T12:08:36;4.10;;;1.25;;
78612;SDS011;67933;51.060;3.638;2023-11-21T12:11:03;6.65;;;1.42;;
78612;SDS011;67933;51.060;3.638;2023-11-21T12:13:29;3.45;;;1.23;;
78612;SDS011;67933;51.060;3.638;2023-11-21T12:15:55;2.72;;;1.58;;
78612;SDS011;67933;51.060;3.638;2023-11-21T12:18:20;4.40;;;1.50;;
78612;SDS011;67933;51.060;3.638;2023-11-21T12:20:46;5.55;;;1.58;;
78612;SDS011;67933;51.060;3.638;2023-11-21T12:23:15;5.75;;;1.45;;
78612;SDS011;67933;51.060;3.638;2023-11-21T12:25:42;5.10;;;1.40;;
78612;SDS011;67933;51.060;3.638;2023-11-21T12:28:08;4.70;;;1.48;;
78612;SDS011;67933;51.060;3.638;2023-11-21T12:30:34;5.38;;;1.40;;
78612;SDS011;67933;51.060;3.638;2023-11-21T12:33:01;8.55;;;1.52;;
78612;SDS011;67933;51.060;3.638;2023-11-21T12:37:56;7.60;;;1.58;;
78612;SDS011;67933;51.060;3.638;2023-11-21T12:40:25;3.53;;;1.45;;
78612;SDS011;67933;51.060;3.638;2023-11-21T12:42:55;5.35;;;1.48;;
78612;SDS011;67933;51.060;3.638;2023-11-21T12:45:23;4.35;;;1.60;;
78612;SDS011;67933;51.060;3.638;2023-11-21T12:47:56;9.18;;;1.70;;
78612;SDS011;67933;51.060;3.638;2023-11-21T12:50:25;4.97;;;2.00;;
78612;SDS011;67933;51.060;3.638;2023-11-21T12:53:06;4.47;;;1.50;;
78612;SDS011;67933;51.060;3.638;2023-11-21T12:55:35;4.32;;;2.08;;
78612;SDS011;67933;51.060;3.638;2023-11-21T12:58:04;3.78;;;1.80;;
78612;SDS011;67933;51.060;3.638;2023-11-21T13:00:42;4.35;;;1.88;;
78612;SDS011;67933;51.060;3.638;2023-11-21T13:03:11;2.97;;;1.60;;
78612;SDS011;67933;51.060;3.638;2023-11-21T13:05:41;4.35;;;1.83;;
78612;SDS011;67933;51.060;3.638;2023-11-21T13:10:38;6.63;;;1.80;;
78612;SDS011;67933;51.060;3.638;2023-11-21T13:13:09;5.30;;;2.15;;
78612;SDS011;67933;51.060;3.638;2023-11-21T13:15:46;3.92;;;2.40;;
78612;SDS011;67933;51.060;3.638;2023-11-21T13:18:13;5.38;;;2.25;;
78612;SDS011;67933;51.060;3.638;2023-11-21T13:20:38;3.92;;;1.85;;
78612;SDS011;67933;51.060;3.638;2023-11-21T13:23:07;2.58;;;1.70;;
78612;SDS011;67933;51.060;3.638;2023-11-21T13:25:33;5.53;;;1.98;;
78612;SDS011;67933;51.060;3.638;2023-11-21T13:27:59;4.22;;;2.10;;
78612;SDS011;67933;51.060;3.638;2023-11-21T13:30:28;4.60;;;2.17;;
78612;SDS011;67933;51.060;3.638;2023-11-21T13:33:00;3.85;;;1.88;;
78612;SDS011;67933;51.060;3.638;2023-11-21T13:35:36;4.93;;;1.92;;
78612;SDS011;67933;51.060;3.638;2023-11-21T13:38:13;3.38;;;2.38;;
78612;SDS011;67933;51.060;3.638;2023-11-21T13:40:47;4.18;;;2.13;;
78612;SDS011;67933;51.060;3.638;2023-11-21T13:43:17;3.80;;;1.90;;
78612;SDS011;67933;51.060;3.638;2023-11-21T13:45:45;2.80;;;2.20;;
78612;SDS011;67933;51.060;3.638;2023-11-21T13:48:12;5.32;;;1.65;;
78612;SDS011;67933;51.060;3.638;2023-11-21T13:50:57;3.70;;;1.88;;
78612;SDS011;67933;51.060;3.638;2023-11-21T13:53:26;3.63;;;1.88;;
78612;SDS011;67933;51.060;3.638;2023-11-21T13:55:52;2.83;;;1.90;;
78612;SDS011;67933;51.060;3.638;2023-11-21T14:00:53;4.38;;;2.25;;
78612;SDS011;67933;51.060;3.638;2023-11-21T14:03:25;4.80;;;2.42;;
78612;SDS011;67933;51.060;3.638;2023-11-21T14:06:02;4.40;;;2.38;;
78612;SDS011;67933;51.060;3.638;2023-11-21T14:08:33;4.22;;;2.45;;
78612;SDS011;67933;51.060;3.638;2023-11-21T14:10:59;3.00;;;2.45;;
78612;SDS011;67933;51.060;3.638;2023-11-21T14:13:27;3.05;;;2.53;;
78612;SDS011;67933;51.060;3.638;2023-11-21T14:15:53;6.55;;;2.97;;
78612;SDS011;67933;51.060;3.638;2023-11-21T14:18:27;2.85;;;2.40;;
78612;SDS011;67933;51.060;3.638;2023-11-21T14:21:01;3.63;;;2.88;;
78612;SDS011;67933;51.060;3.638;2023-11-21T14:23:26;4.95;;;3.53;;
78612;SDS011;67933;51.060;3.638;2023-11-21T14:25:53;4.38;;;3.10;;
78612;SDS011;67933;51.060;3.638;2023-11-21T14:28:19;3.70;;;3.10;;
78612;SDS011;67933;51.060;3.638;2023-11-21T14:30:45;5.03;;;2.90;;
78612;SDS011;67933;51.060;3.638;2023-11-21T14:33:11;3.92;;;3.28;;
78612;SDS011;67933;51.060;3.638;2023-11-21T14:35:37;5.10;;;2.80;;
78612;SDS011;67933;51.060;3.638;2023-11-21T14:38:02;4.75;;;2.97;;
78612;SDS011;67933;51.060;3.638;2023-11-21T14:40:30;3.78;;;2.80;;
78612;SDS011;67933;51.060;3.638;2023-11-21T14:43:02;3.58;;;3.17;;
78612;SDS011;67933;51.060;3.638;2023-11-21T14:45:30;3.80;;;3.25;;
78612;SDS011;67933;51.060;3.638;2023-11-21T14:47:56;3.83;;;3.35;;
78612;SDS011;67933;51.060;3.638;2023-11-21T14:50:35;3.30;;;2.65;;
78612;SDS011;67933;51.060;3.638;2023-11-21T14:53:07;3.40;;;2.95;;
78612;SDS011;67933;51.060;3.638;2023-11-21T14:55:34;5.30;;;3.08;;
78612;SDS011;67933;51.060;3.638;2023-11-21T14:58:03;3.80;;;3.38;;